Time;durP1;ratioP1;P1;durP2;ratioP2;P2;SDS_P1;SDS_P2;PMS_P1;PMS_P2;Temp;Humidity;BMP_temperature;BMP_pressure;BME280_temperature;BME280_humidity;BME280_pressure;Samples;Min_cycle;Max_cycle;Signal;HPM_P1;HPM_P2
2022/01/02 00:01:20;;;;;;;1.08;0.93;;;;;;;;;;5056835;28;20208;-53
2022/01/02 00:03:50;;;;;;;0.90;0.90;;;;;;;;;;5057153;28;20204;-53
2022/01/02 00:06:20;;;;;;;1.20;1.10;;;;;;;;;;5057195;28;20205;-53
2022/01/02 00:08:48;;;;;;;1.02;0.88;;;;;;;;;;5057871;28;20209;-53
2022/01/02 00:11:18;;;;;;;1.50;1.00;;;;;;;;;;5057189;28;20491;-54
2022/01/02 00:13:49;;;;;;;1.95;1.10;;;;;;;;;;5057366;28;20219;-54
2022/01/02 00:16:17;;;;;;;1.13;0.80;;;;;;;;;;5056882;28;20311;-54
2022/01/02 00:18:51;;;;;;;1.38;1.00;;;;;;;;;;5057272;28;20335;-54
2022/01/02 00:21:21;;;;;;;1.23;1.08;;;;;;;;;;5056767;28;20503;-53
2022/01/02 00:23:58;;;;;;;2.00;0.90;;;;;;;;;;5057284;28;20204;-54
2022/01/02 00:26:34;;;;;;;1.10;1.00;;;;;;;;;;5056963;28;20208;-54
2022/01/02 00:29:04;;;;;;;1.55;0.90;;;;;;;;;;5057115;28;20204;-54
2022/01/02 00:31:32;;;;;;;1.33;0.88;;;;;;;;;;5057348;28;20205;-54
2022/01/02 00:33:59;;;;;;;1.35;1.00;;;;;;;;;;5057026;28;20205;-54
2022/01/02 00:36:27;;;;;;;1.67;1.05;;;;;;;;;;5057880;28;20485;-54
2022/01/02 00:38:54;;;;;;;2.35;1.15;;;;;;;;;;5057624;28;20609;-54
2022/01/02 00:41:24;;;;;;;0.95;0.82;;;;;;;;;;5057595;28;20204;-54
2022/01/02 00:43:56;;;;;;;1.35;1.10;;;;;;;;;;5057807;28;20650;-54
2022/01/02 00:46:26;;;;;;;1.52;1.20;;;;;;;;;;5056697;28;20489;-54
2022/01/02 00:48:55;;;;;;;0.80;0.80;;;;;;;;;;5057598;28;20213;-54
2022/01/02 00:51:28;;;;;;;1.23;0.93;;;;;;;;;;5057311;28;20492;-54
2022/01/02 00:53:58;;;;;;;1.10;1.00;;;;;;;;;;5057240;28;20213;-54
2022/01/02 00:56:28;;;;;;;1.38;0.80;;;;;;;;;;5057654;28;20274;-54
2022/01/02 00:59:01;;;;;;;1.15;0.90;;;;;;;;;;5057214;28;20303;-54
2022/01/02 01:01:34;;;;;;;1.30;1.10;;;;;;;;;;5017483;28;20345;-54
2022/01/02 01:04:02;;;;;;;1.00;0.98;;;;;;;;;;5017611;28;20637;-54
2022/01/02 01:06:32;;;;;;;1.85;1.00;;;;;;;;;;5017436;28;20317;-54
2022/01/02 01:09:03;;;;;;;1.20;0.80;;;;;;;;;;5017122;28;20202;-54
2022/01/02 01:11:31;;;;;;;0.90;0.90;;;;;;;;;;5017621;28;20292;-54
2022/01/02 01:13:59;;;;;;;0.95;0.88;;;;;;;;;;5017265;28;20206;-54
2022/01/02 01:16:27;;;;;;;0.80;0.80;;;;;;;;;;5016728;28;20581;-54
2022/01/02 01:18:57;;;;;;;0.90;0.85;;;;;;;;;;5017752;28;20500;-54
2022/01/02 01:21:25;;;;;;;1.25;0.90;;;;;;;;;;5016898;28;20236;-54
2022/01/02 01:23:52;;;;;;;1.00;0.90;;;;;;;;;;5017267;28;20617;-54
2022/01/02 01:26:20;;;;;;;1.70;1.00;;;;;;;;;;5017247;28;20210;-54
2022/01/02 01:28:48;;;;;;;0.95;0.95;;;;;;;;;;5045807;28;20197;-54
2022/01/02 01:31:15;;;;;;;0.75;0.75;;;;;;;;;;5055809;28;20620;-54
2022/01/02 01:33:42;;;;;;;1.02;0.90;;;;;;;;;;5057028;28;20228;-53
2022/01/02 01:36:11;;;;;;;1.63;1.00;;;;;;;;;;5055900;28;20217;-53
2022/01/02 01:38:39;;;;;;;1.10;0.90;;;;;;;;;;5056116;28;20229;-54
2022/01/02 01:41:08;;;;;;;1.15;1.00;;;;;;;;;;5056180;28;20205;-54
2022/01/02 01:43:40;;;;;;;1.17;0.80;;;;;;;;;;5055903;28;20213;-54
2022/01/02 01:46:08;;;;;;;1.02;0.90;;;;;;;;;;5056682;28;20487;-54
2022/01/02 01:48:35;;;;;;;1.05;1.00;;;;;;;;;;5055424;28;20216;-54
2022/01/02 01:51:03;;;;;;;1.83;1.02;;;;;;;;;;5055741;28;20240;-54
2022/01/02 01:53:32;;;;;;;1.25;1.02;;;;;;;;;;5055474;28;20208;-54
2022/01/02 01:55:59;;;;;;;1.10;1.00;;;;;;;;;;5055346;28;20219;-54
2022/01/02 01:58:26;;;;;;;1.00;0.90;;;;;;;;;;5055550;28;20224;-54
2022/01/02 02:00:53;;;;;;;1.33;0.90;;;;;;;;;;5055733;28;20209;-54
2022/01/02 02:03:21;;;;;;;1.23;0.90;;;;;;;;;;5056533;28;20205;-54
2022/01/02 02:05:49;;;;;;;0.95;0.85;;;;;;;;;;5059664;28;20235;-54
2022/01/02 02:08:16;;;;;;;1.58;1.00;;;;;;;;;;5059587;28;20197;-54
2022/01/02 02:10:53;;;;;;;1.20;0.82;;;;;;;;;;5059766;28;20205;-54
2022/01/02 02:13:21;;;;;;;0.80;0.80;;;;;;;;;;5060199;28;20204;-54
2022/01/02 02:15:48;;;;;;;1.02;0.90;;;;;;;;;;5060119;28;20205;-54
2022/01/02 02:18:16;;;;;;;1.10;1.00;;;;;;;;;;5059787;28;20228;-54
2022/01/02 02:20:45;;;;;;;1.00;0.85;;;;;;;;;;5060359;28;20493;-54
2022/01/02 02:23:14;;;;;;;1.00;0.85;;;;;;;;;;5060722;28;20486;-54
2022/01/02 02:25:42;;;;;;;0.98;0.90;;;;;;;;;;5059098;28;20232;-54
2022/01/02 02:28:10;;;;;;;2.35;0.95;;;;;;;;;;5059445;28;20201;-54
2022/01/02 02:30:39;;;;;;;1.00;0.80;;;;;;;;;;5060528;28;20205;-54
2022/01/02 02:33:07;;;;;;;1.10;0.93;;;;;;;;;;5060317;28;20213;-54
2022/01/02 02:35:35;;;;;;;1.00;0.90;;;;;;;;;;5059678;28;20252;-54
2022/01/02 02:38:05;;;;;;;0.80;0.80;;;;;;;;;;5059608;28;20616;-54
2022/01/02 02:40:33;;;;;;;1.55;1.13;;;;;;;;;;5060230;28;20205;-54
2022/01/02 02:43:05;;;;;;;0.70;0.70;;;;;;;;;;5059856;28;20205;-54
2022/01/02 02:51:05;;;;;;;0.90;0.80;;;;;;;;;;5053022;28;20208;-54
2022/01/02 02:53:34;;;;;;;0.98;0.98;;;;;;;;;;5059714;28;20213;-54
2022/01/02 02:56:02;;;;;;;1.20;1.13;;;;;;;;;;5059668;28;20543;-54
2022/01/02 02:58:41;;;;;;;0.98;0.98;;;;;;;;;;5059375;28;20233;-54
2022/01/02 03:01:09;;;;;;;1.00;1.00;;;;;;;;;;5059236;28;20539;-54
2022/01/02 03:03:36;;;;;;;1.10;1.00;;;;;;;;;;5059490;28;20205;-54
2022/01/02 03:06:04;;;;;;;1.05;0.90;;;;;;;;;;5059235;28;20440;-54
2022/01/02 03:08:32;;;;;;;0.90;0.90;;;;;;;;;;5058975;28;20233;-54
2022/01/02 03:11:01;;;;;;;1.65;1.00;;;;;;;;;;5059807;28;20228;-54
2022/01/02 03:13:29;;;;;;;1.20;1.10;;;;;;;;;;5058464;28;20581;-54
2022/01/02 03:15:56;;;;;;;1.67;1.13;;;;;;;;;;5058777;28;20220;-54
2022/01/02 03:18:23;;;;;;;1.17;1.08;;;;;;;;;;5058908;28;20225;-54
2022/01/02 03:20:51;;;;;;;0.77;0.77;;;;;;;;;;5058822;28;20205;-54
2022/01/02 03:23:18;;;;;;;1.10;0.90;;;;;;;;;;5058552;28;20405;-54
2022/01/02 03:25:46;;;;;;;1.15;1.05;;;;;;;;;;5058772;28;20585;-54
2022/01/02 03:28:15;;;;;;;1.02;1.00;;;;;;;;;;5018975;28;20202;-54
2022/01/02 03:30:43;;;;;;;1.05;0.95;;;;;;;;;;5019238;28;20207;-54
2022/01/02 03:33:10;;;;;;;1.10;1.00;;;;;;;;;;5019339;28;20249;-54
2022/01/02 03:35:38;;;;;;;1.30;1.20;;;;;;;;;;5018948;28;20244;-54
2022/01/02 03:38:06;;;;;;;0.80;0.80;;;;;;;;;;5057619;28;20229;-54
2022/01/02 03:40:33;;;;;;;1.35;1.10;;;;;;;;;;5059131;28;20205;-54
2022/01/02 03:43:01;;;;;;;1.05;1.00;;;;;;;;;;5058869;28;20205;-54
2022/01/02 03:45:30;;;;;;;1.27;1.17;;;;;;;;;;5058986;28;20216;-54
2022/01/02 03:47:57;;;;;;;1.10;1.00;;;;;;;;;;5059156;28;20197;-54
2022/01/02 03:50:25;;;;;;;1.00;1.00;;;;;;;;;;5059343;28;20224;-54
2022/01/02 03:52:52;;;;;;;1.08;0.98;;;;;;;;;;5059250;28;20205;-54
2022/01/02 03:55:19;;;;;;;1.13;1.02;;;;;;;;;;5058287;28;20653;-54
2022/01/02 03:57:47;;;;;;;1.02;1.00;;;;;;;;;;5057650;28;20216;-54
2022/01/02 04:00:16;;;;;;;1.10;1.00;;;;;;;;;;5058608;28;20205;-54
2022/01/02 04:02:45;;;;;;;1.48;1.10;;;;;;;;;;5059038;28;20205;-54
2022/01/02 04:05:13;;;;;;;1.17;1.08;;;;;;;;;;5058917;28;20205;-54
2022/01/02 04:07:41;;;;;;;0.93;0.93;;;;;;;;;;5058203;28;20201;-54
2022/01/02 04:10:10;;;;;;;1.25;1.15;;;;;;;;;;5059054;28;20481;-54
2022/01/02 04:12:37;;;;;;;0.90;0.90;;;;;;;;;;5058698;28;20209;-54
2022/01/02 04:15:06;;;;;;;1.20;1.10;;;;;;;;;;5058713;28;20205;-54
2022/01/02 04:17:34;;;;;;;1.15;1.08;;;;;;;;;;5057864;28;20506;-54
2022/01/02 04:20:04;;;;;;;1.20;1.10;;;;;;;;;;5058488;28;20232;-54
2022/01/02 04:22:31;;;;;;;1.10;1.00;;;;;;;;;;5058284;28;20205;-54
2022/01/02 04:24:59;;;;;;;1.58;1.23;;;;;;;;;;5058602;28;20215;-54
2022/01/02 04:27:26;;;;;;;1.65;1.40;;;;;;;;;;5057480;28;20212;-54
2022/01/02 04:29:53;;;;;;;1.25;1.15;;;;;;;;;;5058174;28;20216;-54
2022/01/02 04:32:21;;;;;;;1.20;1.10;;;;;;;;;;5058080;28;20204;-54
2022/01/02 04:34:48;;;;;;;1.10;1.02;;;;;;;;;;5057995;28;20510;-54
2022/01/02 04:37:17;;;;;;;1.20;1.10;;;;;;;;;;5058337;28;20216;-55
2022/01/02 04:39:45;;;;;;;1.20;1.10;;;;;;;;;;5057949;28;20236;-54
2022/01/02 04:42:12;;;;;;;1.00;0.90;;;;;;;;;;5057744;28;20291;-54
2022/01/02 04:44:40;;;;;;;1.40;1.30;;;;;;;;;;5057932;28;20205;-54
2022/01/02 04:47:07;;;;;;;1.30;1.20;;;;;;;;;;5057719;28;20200;-54
2022/01/02 04:49:34;;;;;;;0.98;0.98;;;;;;;;;;5058092;28;20201;-54
2022/01/02 04:52:02;;;;;;;1.42;1.10;;;;;;;;;;5057094;28;20494;-54
2022/01/02 04:54:30;;;;;;;1.15;1.05;;;;;;;;;;5057523;28;20205;-54
2022/01/02 04:56:58;;;;;;;1.20;1.10;;;;;;;;;;5057754;28;20196;-54
2022/01/02 04:59:25;;;;;;;1.10;1.00;;;;;;;;;;5057779;28;20221;-54
2022/01/02 05:01:53;;;;;;;0.98;0.98;;;;;;;;;;5057760;28;20485;-54
2022/01/02 05:04:20;;;;;;;1.02;1.00;;;;;;;;;;5057763;28;20216;-54
2022/01/02 05:06:47;;;;;;;1.23;1.13;;;;;;;;;;5018122;28;20203;-54
2022/01/02 05:09:15;;;;;;;1.52;1.42;;;;;;;;;;5017888;28;20213;-54
2022/01/02 05:11:43;;;;;;;1.20;1.10;;;;;;;;;;5018150;28;20582;-54
2022/01/02 05:14:11;;;;;;;1.25;1.15;;;;;;;;;;5018371;28;20240;-54
2022/01/02 05:16:38;;;;;;;1.30;1.20;;;;;;;;;;5055362;28;20585;-54
2022/01/02 05:19:06;;;;;;;1.30;1.20;;;;;;;;;;5057729;28;20308;-54
2022/01/02 05:21:33;;;;;;;1.30;1.20;;;;;;;;;;5056905;28;20499;-54
2022/01/02 05:24:00;;;;;;;1.40;1.30;;;;;;;;;;5056508;28;20207;-54
2022/01/02 05:26:29;;;;;;;1.40;1.30;;;;;;;;;;5057077;28;20208;-54
2022/01/02 05:28:58;;;;;;;1.30;1.20;;;;;;;;;;5056860;28;20204;-54
2022/01/02 05:31:25;;;;;;;1.42;1.33;;;;;;;;;;5056526;28;20599;-53
2022/01/02 05:33:53;;;;;;;1.40;1.30;;;;;;;;;;5056039;28;20208;-53
2022/01/02 05:36:20;;;;;;;1.20;1.10;;;;;;;;;;5056349;28;20209;-53
2022/01/02 05:38:47;;;;;;;1.17;1.10;;;;;;;;;;5056511;28;20236;-54
2022/01/02 05:41:15;;;;;;;1.20;1.10;;;;;;;;;;5056895;28;20212;-54
2022/01/02 05:43:42;;;;;;;1.48;1.38;;;;;;;;;;5056183;28;20196;-54
2022/01/02 05:46:11;;;;;;;1.27;1.17;;;;;;;;;;5056573;28;20213;-54
2022/01/02 05:48:38;;;;;;;1.55;1.40;;;;;;;;;;5056429;28;20212;-54
2022/01/02 05:51:06;;;;;;;1.25;1.15;;;;;;;;;;5056866;28;20209;-54
2022/01/02 05:53:33;;;;;;;1.30;1.20;;;;;;;;;;5056926;28;20197;-54
2022/01/02 05:56:01;;;;;;;1.25;1.15;;;;;;;;;;5056447;28;20205;-53
2022/01/02 05:58:28;;;;;;;1.27;1.17;;;;;;;;;;5056922;28;20616;-54
2022/01/02 06:00:55;;;;;;;1.40;1.30;;;;;;;;;;5056562;28;20205;-54
2022/01/02 06:03:24;;;;;;;1.30;1.20;;;;;;;;;;5055903;28;20216;-54
2022/01/02 06:05:51;;;;;;;1.33;1.23;;;;;;;;;;5056653;28;20216;-54
2022/01/02 06:08:19;;;;;;;1.45;1.35;;;;;;;;;;5056797;28;20204;-54
2022/01/02 06:10:46;;;;;;;1.10;1.00;;;;;;;;;;5057044;28;20491;-54
2022/01/02 06:13:14;;;;;;;1.30;1.20;;;;;;;;;;5056242;28;20208;-54
2022/01/02 06:15:41;;;;;;;1.20;1.10;;;;;;;;;;5056656;28;20205;-54
2022/01/02 06:18:08;;;;;;;1.50;1.40;;;;;;;;;;5056843;28;20213;-54
2022/01/02 06:20:37;;;;;;;1.42;1.33;;;;;;;;;;5057088;28;20240;-54
2022/01/02 06:23:05;;;;;;;1.33;1.23;;;;;;;;;;5056648;28;20601;-54
2022/01/02 06:25:33;;;;;;;1.45;1.35;;;;;;;;;;5056730;28;20205;-54
2022/01/02 06:28:01;;;;;;;1.50;1.40;;;;;;;;;;5056918;28;20205;-54
2022/01/02 06:30:28;;;;;;;1.40;1.20;;;;;;;;;;5056911;28;20211;-54
2022/01/02 06:32:55;;;;;;;1.48;1.38;;;;;;;;;;5056632;28;20215;-54
2022/01/02 06:35:26;;;;;;;1.40;1.30;;;;;;;;;;5016877;28;20290;-54
2022/01/02 06:37:55;;;;;;;1.40;1.30;;;;;;;;;;5017378;28;20545;-54
2022/01/02 06:40:23;;;;;;;1.48;1.38;;;;;;;;;;5017295;28;20241;-54
2022/01/02 06:42:51;;;;;;;1.30;1.20;;;;;;;;;;5017461;28;20206;-54
2022/01/02 06:45:20;;;;;;;1.40;1.30;;;;;;;;;;5055567;28;20201;-54
2022/01/02 06:47:47;;;;;;;1.35;1.25;;;;;;;;;;5056355;28;20209;-54
2022/01/02 06:50:15;;;;;;;1.25;1.15;;;;;;;;;;5057917;28;20212;-54
2022/01/02 06:52:42;;;;;;;1.48;1.38;;;;;;;;;;5060570;28;20216;-54
2022/01/02 06:55:11;;;;;;;1.40;1.23;;;;;;;;;;5059881;28;20205;-54
2022/01/02 06:57:38;;;;;;;1.83;1.52;;;;;;;;;;5060163;28;20220;-54
2022/01/02 07:00:06;;;;;;;1.25;1.15;;;;;;;;;;5060993;28;20229;-53
2022/01/02 07:02:34;;;;;;;1.40;1.30;;;;;;;;;;5061005;28;20205;-53
2022/01/02 07:05:02;;;;;;;1.30;1.20;;;;;;;;;;5059663;28;20201;-54
2022/01/02 07:07:29;;;;;;;1.38;1.27;;;;;;;;;;5059958;28;20223;-54
2022/01/02 07:09:56;;;;;;;1.23;1.13;;;;;;;;;;5060223;28;20209;-54
2022/01/02 07:12:26;;;;;;;1.17;1.08;;;;;;;;;;5059968;28;20205;-54
2022/01/02 07:14:54;;;;;;;1.45;1.35;;;;;;;;;;5058963;28;20263;-54
2022/01/02 07:17:21;;;;;;;1.48;1.38;;;;;;;;;;5059758;28;20205;-54
2022/01/02 07:19:49;;;;;;;1.33;1.23;;;;;;;;;;5059624;28;20659;-53
2022/01/02 07:22:16;;;;;;;1.52;1.40;;;;;;;;;;5059941;28;20216;-53
2022/01/02 07:24:50;;;;;;;1.27;1.17;;;;;;;;;;5059201;28;20212;-53
2022/01/02 07:27:17;;;;;;;1.48;1.38;;;;;;;;;;5059429;28;20232;-53
2022/01/02 07:29:46;;;;;;;1.60;1.50;;;;;;;;;;5058609;28;20205;-53
2022/01/02 07:32:14;;;;;;;1.52;1.42;;;;;;;;;;5059016;28;20581;-53
2022/01/02 07:34:42;;;;;;;1.20;1.10;;;;;;;;;;5058822;28;20229;-53
2022/01/02 07:37:09;;;;;;;1.30;1.20;;;;;;;;;;5059788;28;20232;-53
2022/01/02 07:39:36;;;;;;;1.20;1.10;;;;;;;;;;5060048;28;20217;-53
2022/01/02 07:42:04;;;;;;;1.40;1.30;;;;;;;;;;5059112;28;20213;-53
2022/01/02 07:44:32;;;;;;;1.27;1.17;;;;;;;;;;5058465;28;20201;-53
2022/01/02 07:47:00;;;;;;;1.30;1.20;;;;;;;;;;5059539;28;20205;-53
2022/01/02 07:49:27;;;;;;;1.30;1.20;;;;;;;;;;5059384;28;20208;-53
2022/01/02 07:51:55;;;;;;;1.10;1.00;;;;;;;;;;5059096;28;20205;-53
2022/01/02 07:54:22;;;;;;;1.33;1.10;;;;;;;;;;5057712;28;20581;-53
2022/01/02 07:56:49;;;;;;;1.40;1.30;;;;;;;;;;5058229;28;20216;-53
2022/01/02 07:59:17;;;;;;;1.00;0.93;;;;;;;;;;5059033;28;20251;-54
2022/01/02 08:01:44;;;;;;;1.17;1.10;;;;;;;;;;5057243;28;20205;-54
2022/01/02 08:04:13;;;;;;;1.30;1.15;;;;;;;;;;5058361;28;20201;-54
2022/01/02 08:06:41;;;;;;;1.33;1.23;;;;;;;;;;5058871;28;20205;-54
2022/01/02 08:09:08;;;;;;;1.20;1.10;;;;;;;;;;5057830;28;20243;-54
2022/01/02 08:11:35;;;;;;;1.25;1.15;;;;;;;;;;5058763;28;20204;-54
2022/01/02 08:14:03;;;;;;;1.13;1.02;;;;;;;;;;5057368;28;20201;-54
2022/01/02 08:16:30;;;;;;;1.30;1.20;;;;;;;;;;5057632;28;20211;-54
2022/01/02 08:18:58;;;;;;;1.40;1.30;;;;;;;;;;5058440;28;20209;-54
2022/01/02 08:21:26;;;;;;;1.20;1.10;;;;;;;;;;5058737;28;20519;-54
2022/01/02 08:23:54;;;;;;;1.10;1.08;;;;;;;;;;5058142;28;20229;-54
2022/01/02 08:26:22;;;;;;;1.20;1.10;;;;;;;;;;5057610;28;20212;-54
2022/01/02 08:28:49;;;;;;;1.40;1.30;;;;;;;;;;5058337;28;20216;-54
2022/01/02 08:31:16;;;;;;;1.25;1.10;;;;;;;;;;5058129;28;20209;-54
2022/01/02 08:33:43;;;;;;;1.30;1.20;;;;;;;;;;5057829;28;20200;-54
2022/01/02 08:36:11;;;;;;;1.38;1.27;;;;;;;;;;5058234;28;20209;-54
2022/01/02 08:38:39;;;;;;;1.00;1.00;;;;;;;;;;5057857;28;20205;-54
2022/01/02 08:41:07;;;;;;;1.30;1.20;;;;;;;;;;5057150;28;20225;-54
2022/01/02 08:43:35;;;;;;;1.50;1.40;;;;;;;;;;5057139;28;20255;-53
2022/01/02 08:46:02;;;;;;;1.38;1.27;;;;;;;;;;5057347;28;20224;-53
2022/01/02 08:48:29;;;;;;;1.10;1.00;;;;;;;;;;5057095;28;20212;-53
2022/01/02 08:50:57;;;;;;;1.23;1.13;;;;;;;;;;5057692;28;20192;-53
2022/01/02 08:53:24;;;;;;;1.20;1.10;;;;;;;;;;5057706;28;20209;-54
2022/01/02 08:55:53;;;;;;;2.05;1.00;;;;;;;;;;5057310;28;20201;-54
2022/01/02 08:58:20;;;;;;;1.42;0.95;;;;;;;;;;5057543;28;20219;-54
2022/01/02 09:00:48;;;;;;;1.35;1.25;;;;;;;;;;5057626;28;20259;-54
2022/01/02 09:03:15;;;;;;;1.20;1.10;;;;;;;;;;5057771;28;20201;-54
2022/01/02 09:05:43;;;;;;;1.30;1.20;;;;;;;;;;5057142;28;20220;-54
2022/01/02 09:08:10;;;;;;;1.40;1.30;;;;;;;;;;5057498;28;20204;-54
2022/01/02 09:10:38;;;;;;;1.23;1.13;;;;;;;;;;5057346;28;20201;-54
2022/01/02 09:13:07;;;;;;;1.30;1.20;;;;;;;;;;5056340;28;20205;-54
2022/01/02 09:15:35;;;;;;;1.33;1.23;;;;;;;;;;5056160;28;20209;-54
2022/01/02 09:18:03;;;;;;;1.45;1.35;;;;;;;;;;5056904;28;20297;-54
2022/01/02 09:20:31;;;;;;;1.52;1.40;;;;;;;;;;5057048;28;20235;-54
2022/01/02 09:22:58;;;;;;;1.10;1.00;;;;;;;;;;5057883;28;20475;-54
2022/01/02 09:25:25;;;;;;;1.50;1.40;;;;;;;;;;5056058;28;20196;-54
2022/01/02 09:27:52;;;;;;;1.33;1.23;;;;;;;;;;5056560;28;20580;-54
2022/01/02 09:30:21;;;;;;;1.25;1.15;;;;;;;;;;5056179;28;20209;-54
2022/01/02 09:32:48;;;;;;;1.40;1.30;;;;;;;;;;5056631;28;20212;-54
2022/01/02 09:35:16;;;;;;;1.23;1.13;;;;;;;;;;5055512;28;20229;-54
2022/01/02 09:37:43;;;;;;;1.52;1.42;;;;;;;;;;5056038;28;20213;-54
2022/01/02 09:40:10;;;;;;;1.20;1.10;;;;;;;;;;5056136;28;20224;-54
2022/01/02 09:42:39;;;;;;;1.83;1.05;;;;;;;;;;5056323;28;20496;-54
2022/01/02 09:45:07;;;;;;;1.40;1.30;;;;;;;;;;5056343;28;20201;-54
2022/01/02 09:47:36;;;;;;;1.33;1.10;;;;;;;;;;5056731;28;20501;-54
2022/01/02 09:50:05;;;;;;;1.48;1.38;;;;;;;;;;5055604;28;20227;-54
2022/01/02 09:52:32;;;;;;;1.05;1.05;;;;;;;;;;5056027;28;20206;-53
2022/01/02 09:55:00;;;;;;;1.35;1.20;;;;;;;;;;5055453;28;20212;-53
2022/01/02 09:57:27;;;;;;;1.75;1.30;;;;;;;;;;5055908;28;20219;-53
2022/01/02 09:59:56;;;;;;;1.70;1.05;;;;;;;;;;5055758;28;20260;-53
2022/01/02 10:02:23;;;;;;;2.47;1.33;;;;;;;;;;5055286;28;20205;-54
2022/01/02 10:05:01;;;;;;;2.95;1.33;;;;;;;;;;5055114;28;20204;-54
2022/01/02 10:07:31;;;;;;;1.45;1.35;;;;;;;;;;5055331;28;20262;-54
2022/01/02 10:09:58;;;;;;;2.75;1.30;;;;;;;;;;5055739;28;20274;-54
2022/01/02 10:12:27;;;;;;;2.65;1.30;;;;;;;;;;5055502;28;20228;-54
2022/01/02 10:15:13;;;;;;;2.42;1.30;;;;;;;;;;5056004;28;20201;-54
2022/01/02 10:17:54;;;;;;;1.42;1.33;;;;;;;;;;5055399;28;20204;-54
2022/01/02 10:20:23;;;;;;;1.80;1.23;;;;;;;;;;5055768;28;20225;-54
2022/01/02 10:23:01;;;;;;;1.40;1.30;;;;;;;;;;5055155;28;20304;-54
2022/01/02 10:25:42;;;;;;;1.50;1.40;;;;;;;;;;5056128;28;20611;-54
2022/01/02 10:28:25;;;;;;;1.77;1.40;;;;;;;;;;5059716;28;20205;-54
2022/01/02 10:30:53;;;;;;;2.30;1.60;;;;;;;;;;5059609;28;20208;-54
2022/01/02 10:33:21;;;;;;;2.58;1.35;;;;;;;;;;5058682;28;20207;-54
2022/01/02 10:35:56;;;;;;;2.85;1.50;;;;;;;;;;5058552;28;20259;-54
2022/01/02 10:38:23;;;;;;;2.63;1.13;;;;;;;;;;5059082;28;20209;-54
2022/01/02 10:40:51;;;;;;;1.92;1.40;;;;;;;;;;5059675;28;20520;-54
2022/01/02 10:43:26;;;;;;;2.30;1.45;;;;;;;;;;5059059;28;20623;-54
2022/01/02 10:45:55;;;;;;;1.70;1.50;;;;;;;;;;5059448;28;20205;-54
2022/01/02 10:48:31;;;;;;;2.75;1.48;;;;;;;;;;5058849;28;20200;-54
2022/01/02 10:51:17;;;;;;;2.55;1.45;;;;;;;;;;5058878;28;20487;-54
2022/01/02 10:53:54;;;;;;;1.70;1.48;;;;;;;;;;5058071;28;20283;-54
2022/01/02 10:56:22;;;;;;;1.40;1.30;;;;;;;;;;5058684;28;20212;-54
2022/01/02 10:58:49;;;;;;;2.80;1.50;;;;;;;;;;5058667;28;20204;-54
2022/01/02 11:01:17;;;;;;;1.63;1.25;;;;;;;;;;5058547;28;20237;-54
2022/01/02 11:03:45;;;;;;;1.40;1.30;;;;;;;;;;5057571;28;20205;-54
2022/01/02 11:06:13;;;;;;;1.95;1.60;;;;;;;;;;5058706;28;20205;-54
2022/01/02 11:08:43;;;;;;;1.90;1.73;;;;;;;;;;5057559;28;20205;-54
2022/01/02 11:11:11;;;;;;;1.48;1.38;;;;;;;;;;5058428;28;20201;-54
2022/01/02 11:13:39;;;;;;;2.22;1.50;;;;;;;;;;5058092;28;20231;-54
2022/01/02 11:16:06;;;;;;;1.88;1.45;;;;;;;;;;5058522;28;20299;-54
2022/01/02 11:18:34;;;;;;;1.95;1.75;;;;;;;;;;5057533;28;20205;-54
2022/01/02 11:21:02;;;;;;;2.13;1.65;;;;;;;;;;5057125;28;20225;-54
2022/01/02 11:23:34;;;;;;;5.47;1.52;;;;;;;;;;5057471;28;20618;-54
2022/01/02 11:26:05;;;;;;;2.45;1.67;;;;;;;;;;5058576;28;20204;-54
2022/01/02 11:28:37;;;;;;;2.50;1.70;;;;;;;;;;5058059;28;20208;-54
2022/01/02 11:31:06;;;;;;;1.75;1.60;;;;;;;;;;5058390;28;20520;-54
2022/01/02 11:33:35;;;;;;;3.00;1.45;;;;;;;;;;5056423;28;20488;-54
2022/01/02 11:36:21;;;;;;;2.00;1.77;;;;;;;;;;5057913;28;20241;-54
2022/01/02 11:38:57;;;;;;;3.92;1.50;;;;;;;;;;5058073;28;20204;-54
2022/01/02 11:41:35;;;;;;;3.35;1.50;;;;;;;;;;5057883;28;20229;-54
2022/01/02 11:44:04;;;;;;;2.33;1.63;;;;;;;;;;5058230;28;20283;-54
2022/01/02 11:46:34;;;;;;;2.42;1.92;;;;;;;;;;5057812;28;20232;-54
2022/01/02 11:49:25;;;;;;;2.58;1.60;;;;;;;;;;5058270;28;20205;-54
2022/01/02 11:51:59;;;;;;;2.97;1.80;;;;;;;;;;5043545;28;20255;-54
2022/01/02 11:54:41;;;;;;;1.60;1.50;;;;;;;;;;5056811;28;20201;-54
2022/01/02 11:57:23;;;;;;;2.67;1.42;;;;;;;;;;5057468;28;20205;-54
2022/01/02 11:59:58;;;;;;;2.60;1.73;;;;;;;;;;5057064;28;20208;-54
2022/01/02 12:02:37;;;;;;;1.70;1.52;;;;;;;;;;5057130;28;20224;-54
2022/01/02 12:05:12;;;;;;;2.30;1.80;;;;;;;;;;5057141;28;20585;-54
2022/01/02 12:07:58;;;;;;;1.67;1.58;;;;;;;;;;5057196;28;20270;-54
2022/01/02 12:10:27;;;;;;;2.15;1.77;;;;;;;;;;5057495;28;20604;-54
2022/01/02 12:13:20;;;;;;;1.77;1.67;;;;;;;;;;5057011;28;20197;-54
2022/01/02 12:16:06;;;;;;;2.97;1.42;;;;;;;;;;5056929;28;20201;-54
2022/01/02 12:18:39;;;;;;;1.90;1.70;;;;;;;;;;5057210;28;20212;-54
2022/01/02 12:21:10;;;;;;;1.90;1.70;;;;;;;;;;5057153;28;20264;-54
2022/01/02 12:23:54;;;;;;;1.77;1.67;;;;;;;;;;5056067;28;20212;-53
2022/01/02 12:26:22;;;;;;;1.60;1.50;;;;;;;;;;5056454;28;20204;-53
2022/01/02 12:28:56;;;;;;;1.60;1.50;;;;;;;;;;5056144;28;20216;-54
2022/01/02 12:31:24;;;;;;;1.50;1.40;;;;;;;;;;5056980;28;20200;-54
2022/01/02 12:33:54;;;;;;;1.75;1.55;;;;;;;;;;5056125;28;20240;-54
2022/01/02 12:36:22;;;;;;;1.70;1.60;;;;;;;;;;5056537;28;20663;-54
2022/01/02 12:38:50;;;;;;;1.48;1.38;;;;;;;;;;5056957;28;20213;-54
2022/01/02 12:41:18;;;;;;;1.77;1.60;;;;;;;;;;5057120;28;20252;-54
2022/01/02 12:43:51;;;;;;;2.42;1.70;;;;;;;;;;5055765;28;20208;-54
2022/01/02 12:46:32;;;;;;;1.50;1.40;;;;;;;;;;5056432;28;20208;-54
2022/01/02 12:49:01;;;;;;;1.50;1.40;;;;;;;;;;5055563;28;20486;-54
2022/01/02 12:51:32;;;;;;;1.58;1.45;;;;;;;;;;5056117;28;20262;-54
2022/01/02 12:54:00;;;;;;;1.52;1.42;;;;;;;;;;5055664;28;20482;-54
2022/01/02 12:56:37;;;;;;;1.55;1.20;;;;;;;;;;5056496;28;20209;-54
2022/01/02 12:59:18;;;;;;;1.40;1.30;;;;;;;;;;5056079;28;20205;-54
2022/01/02 13:01:55;;;;;;;1.60;1.50;;;;;;;;;;5055577;28;20232;-54
2022/01/02 13:04:27;;;;;;;2.20;2.00;;;;;;;;;;5054688;28;20200;-54
2022/01/02 13:06:56;;;;;;;3.15;2.65;;;;;;;;;;5055318;28;20228;-54
2022/01/02 13:09:24;;;;;;;3.35;2.50;;;;;;;;;;5055943;28;20216;-54
2022/01/02 13:11:51;;;;;;;3.25;2.53;;;;;;;;;;5055866;28;20201;-54
2022/01/02 13:14:40;;;;;;;2.92;2.70;;;;;;;;;;5055702;28;20201;-54
2022/01/02 13:17:09;;;;;;;3.05;2.75;;;;;;;;;;5051057;28;20205;-54
2022/01/02 13:19:45;;;;;;;3.13;2.42;;;;;;;;;;5055479;28;20255;-54
2022/01/02 13:22:17;;;;;;;3.10;2.38;;;;;;;;;;5055299;28;20786;-54
2022/01/02 13:24:45;;;;;;;3.38;2.60;;;;;;;;;;5054336;28;20290;-54
2022/01/02 13:27:13;;;;;;;3.50;2.70;;;;;;;;;;5055972;28;20266;-54
2022/01/02 13:29:40;;;;;;;3.00;2.60;;;;;;;;;;5055205;28;20504;-54
2022/01/02 13:32:18;;;;;;;2.55;2.35;;;;;;;;;;5055534;28;20208;-54
2022/01/02 13:34:58;;;;;;;2.78;2.45;;;;;;;;;;5054437;28;20251;-54
2022/01/02 13:37:31;;;;;;;4.05;2.53;;;;;;;;;;5055252;28;20204;-54
2022/01/02 13:39:58;;;;;;;5.18;2.35;;;;;;;;;;5060622;28;20592;-54
2022/01/02 13:42:36;;;;;;;3.50;2.17;;;;;;;;;;5059591;28;20225;-53
2022/01/02 13:45:08;;;;;;;2.95;2.42;;;;;;;;;;5015145;28;20214;-53
2022/01/02 13:47:36;;;;;;;2.83;2.40;;;;;;;;;;5016411;28;20471;-53
2022/01/02 13:50:05;;;;;;;2.50;2.10;;;;;;;;;;5015738;28;20202;-54
2022/01/02 13:52:32;;;;;;;2.75;2.25;;;;;;;;;;5017331;28;20231;-54
2022/01/02 13:55:10;;;;;;;4.53;2.50;;;;;;;;;;5038684;28;20725;-54
2022/01/02 13:57:37;;;;;;;5.50;5.00;;;;;;;;;;5040451;28;20220;-54
2022/01/02 14:00:18;;;;;;;5.55;4.45;;;;;;;;;;5035594;28;20206;-54
2022/01/02 14:02:51;;;;;;;5.20;4.35;;;;;;;;;;5041421;28;20324;-54
2022/01/02 14:05:20;;;;;;;5.30;4.18;;;;;;;;;;5059173;28;20655;-54
2022/01/02 14:07:48;;;;;;;5.03;3.80;;;;;;;;;;5059401;28;20241;-54
2022/01/02 14:10:16;;;;;;;5.53;4.40;;;;;;;;;;5059025;28;20205;-54
2022/01/02 14:12:44;;;;;;;4.38;3.97;;;;;;;;;;5058284;28;20207;-54
2022/01/02 14:15:19;;;;;;;5.53;3.50;;;;;;;;;;5059377;28;20304;-54
2022/01/02 14:17:47;;;;;;;5.45;3.67;;;;;;;;;;5059122;28;20210;-54
2022/01/02 14:20:16;;;;;;;4.03;3.13;;;;;;;;;;5058570;28;20205;-54
2022/01/02 14:22:46;;;;;;;3.25;2.92;;;;;;;;;;5059060;28;20224;-54
2022/01/02 14:25:14;;;;;;;4.13;3.20;;;;;;;;;;5058769;28;20208;-54
2022/01/02 14:27:45;;;;;;;3.38;2.97;;;;;;;;;;5058951;28;20262;-54
2022/01/02 14:30:13;;;;;;;5.05;3.40;;;;;;;;;;5058897;28;20272;-54
2022/01/02 14:32:41;;;;;;;3.78;3.20;;;;;;;;;;5058460;28;20201;-54
2022/01/02 14:35:09;;;;;;;5.28;3.88;;;;;;;;;;5057423;28;20237;-54
2022/01/02 14:37:36;;;;;;;4.72;4.03;;;;;;;;;;5059151;28;20223;-54
2022/01/02 14:40:05;;;;;;;5.32;4.50;;;;;;;;;;5058519;28;20204;-54
2022/01/02 14:42:34;;;;;;;7.22;6.53;;;;;;;;;;5058935;28;20268;-54
2022/01/02 14:45:02;;;;;;;6.93;6.05;;;;;;;;;;5057422;28;20263;-54
2022/01/02 14:47:31;;;;;;;8.25;5.70;;;;;;;;;;5058288;28;20213;-54
2022/01/02 14:50:03;;;;;;;6.00;5.40;;;;;;;;;;5058478;28;20205;-54
2022/01/02 14:52:30;;;;;;;6.63;5.38;;;;;;;;;;5057971;28;20307;-54
2022/01/02 14:54:57;;;;;;;5.90;5.20;;;;;;;;;;5057336;28;20216;-54
2022/01/02 14:57:29;;;;;;;5.95;5.20;;;;;;;;;;5059765;28;20533;-54
2022/01/02 14:59:56;;;;;;;6.65;4.97;;;;;;;;;;5058345;28;20224;-54
2022/01/02 15:02:24;;;;;;;5.93;4.95;;;;;;;;;;5058517;28;20224;-54